createdAt,value
2022-10-30T00:02:18.945Z,96156.17
2022-10-30T00:04:47.624Z,96159.89
2022-10-30T00:07:16.131Z,96152.18
2022-10-30T00:09:46.672Z,96160.64
2022-10-30T00:12:19.062Z,96153.25
2022-10-30T00:14:47.789Z,96154.63
2022-10-30T00:17:24.177Z,96155.78
2022-10-30T00:19:54.253Z,96151.88
2022-10-30T00:22:23.106Z,96159.62
2022-10-30T00:24:51.717Z,96157.63
2022-10-30T00:27:23.472Z,96152.98
2022-10-30T00:29:52.468Z,96159.31
2022-10-30T00:32:21.011Z,96155.68
2022-10-30T00:34:49.689Z,96152.18
2022-10-30T00:37:20.674Z,96152.81
2022-10-30T00:39:49.284Z,96157.01
2022-10-30T00:42:19.411Z,96154.36
2022-10-30T00:44:53.965Z,96148.60
2022-10-30T00:47:36.924Z,96150.55
2022-10-30T00:50:10.512Z,96146.13
2022-10-30T00:52:44.232Z,96148.01
2022-10-30T00:55:32.126Z,96149.80
2022-10-30T00:58:03.834Z,96151.44
2022-10-30T01:00:32.604Z,96147.52
2022-10-30T01:03:02.116Z,96150.61
2022-10-30T01:05:34.046Z,96139.66
2022-10-30T01:08:09.476Z,96144.09
2022-10-30T01:10:38.726Z,96134.98
2022-10-30T01:13:08.499Z,96122.64
2022-10-30T01:15:43.139Z,96120.58
2022-10-30T01:18:20.748Z,96121.00
2022-10-30T01:21:25.717Z,96114.16
2022-10-30T01:24:15.357Z,96114.73
2022-10-30T01:26:49.652Z,96107.27
2022-10-30T01:29:33.399Z,96114.95
2022-10-30T01:32:30.586Z,96121.63
2022-10-30T01:35:14.241Z,96114.13
2022-10-30T01:37:49.104Z,96109.30
2022-10-30T01:40:20.271Z,96116.55
2022-10-30T01:42:57.523Z,96110.30
2022-10-30T01:45:43.894Z,96108.42
2022-10-30T01:48:42.811Z,96103.07
2022-10-30T01:51:23.250Z,96108.09
2022-10-30T01:54:14.649Z,96105.12
2022-10-30T01:56:52.292Z,96102.79
2022-10-30T01:59:39.275Z,96089.75
2022-10-30T02:02:10.615Z,96104.99
2022-10-30T02:04:42.625Z,96100.04
2022-10-30T02:07:12.742Z,96102.07
2022-10-30T02:09:44.776Z,96099.25
2022-10-30T02:12:16.482Z,96108.48
2022-10-30T02:14:50.927Z,96088.75
2022-10-30T02:17:20.862Z,96100.73
2022-10-30T02:19:49.579Z,96097.21
2022-10-30T02:22:18.427Z,96091.95
2022-10-30T02:24:48.040Z,96092.34
2022-10-30T02:27:16.701Z,96088.98
2022-10-30T02:29:45.340Z,96096.50
2022-10-30T02:32:13.966Z,96086.67
2022-10-30T02:34:45.823Z,96090.64
2022-10-30T02:37:14.361Z,96090.20
2022-10-30T02:39:44.557Z,96089.44
2022-10-30T02:42:14.688Z,96094.90
2022-10-30T02:44:43.243Z,96093.55
2022-10-30T02:47:11.892Z,96094.26
2022-10-30T02:49:42.243Z,96093.77
2022-10-30T02:52:10.883Z,96093.00
2022-10-30T02:54:39.611Z,96098.59
2022-10-30T02:57:08.182Z,96100.03
2022-10-30T02:59:39.548Z,96101.30
2022-10-30T03:02:11.412Z,96098.70
2022-10-30T03:04:40.135Z,96105.98
2022-10-30T03:07:08.836Z,96101.94
2022-10-30T03:09:41.561Z,96102.84
2022-10-30T03:12:10.162Z,96110.28
2022-10-30T03:14:38.689Z,96116.34
2022-10-30T03:17:08.497Z,96115.67
2022-10-30T03:19:44.343Z,96119.97
2022-10-30T03:22:14.911Z,96125.36
2022-10-30T03:24:46.410Z,96119.61
2022-10-30T03:27:15.013Z,96113.13
2022-10-30T03:29:44.713Z,96115.52
2022-10-30T03:32:13.468Z,96109.16
2022-10-30T03:34:46.071Z,96106.95
2022-10-30T03:37:17.506Z,96106.66
2022-10-30T03:39:56.090Z,96116.32
2022-10-30T03:42:24.692Z,96110.64
2022-10-30T03:44:53.329Z,96112.19
2022-10-30T03:47:23.344Z,96117.48
2022-10-30T03:49:51.866Z,96107.47
2022-10-30T03:52:24.606Z,96111.44
2022-10-30T03:54:53.166Z,96112.48
2022-10-30T03:57:21.751Z,96102.08
2022-10-30T03:59:51.891Z,96103.50
2022-10-30T04:02:22.067Z,96105.50
2022-10-30T04:04:51.015Z,96097.56
2022-10-30T04:07:19.511Z,96093.36
2022-10-30T04:09:48.205Z,96095.62
2022-10-30T04:12:16.781Z,96095.39
2022-10-30T04:14:45.287Z,96098.75
2022-10-30T04:17:13.868Z,96101.30
2022-10-30T04:19:44.807Z,96105.91
2022-10-30T04:22:13.311Z,96104.61
2022-10-30T04:24:41.942Z,96102.33
2022-10-30T04:27:10.529Z,96101.58
2022-10-30T04:29:39.101Z,96096.42
2022-10-30T04:32:07.790Z,96098.28
2022-10-30T04:34:36.796Z,96095.50
2022-10-30T04:37:05.395Z,96092.01
2022-10-30T04:39:34.458Z,96096.84
2022-10-30T04:42:03.149Z,96098.39
2022-10-30T04:44:31.696Z,96100.97
2022-10-30T04:47:00.243Z,96107.81
2022-10-30T04:49:28.898Z,96105.47
2022-10-30T04:51:57.567Z,96109.44
2022-10-30T04:54:29.210Z,96112.95
2022-10-30T04:56:57.970Z,96114.50
2022-10-30T04:59:26.711Z,96112.95
2022-10-30T05:01:55.611Z,96109.36
2022-10-30T05:04:24.370Z,96107.96
2022-10-30T05:06:53.107Z,96106.72
2022-10-30T05:09:21.691Z,96112.78
2022-10-30T05:11:50.310Z,96117.07
2022-10-30T05:14:18.900Z,96119.23
2022-10-30T05:16:47.609Z,96118.85
2022-10-30T05:19:16.168Z,96121.66
2022-10-30T05:21:44.767Z,96122.98
2022-10-30T05:24:16.215Z,96123.20
2022-10-30T05:26:45.427Z,96128.81
2022-10-30T05:29:17.617Z,96121.66
2022-10-30T05:31:49.458Z,96131.14
2022-10-30T05:34:18.032Z,96129.76
2022-10-30T05:36:48.190Z,96124.22
2022-10-30T05:39:16.923Z,96125.84
2022-10-30T05:41:45.545Z,96128.23
2022-10-30T05:44:28.865Z,96126.11
2022-10-30T05:46:47.005Z,96127.95
2022-10-30T05:49:15.781Z,96122.77
2022-10-30T05:51:44.559Z,96119.84
2022-10-30T05:54:14.708Z,96120.52
2022-10-30T05:56:43.364Z,96126.53
2022-10-30T05:59:11.943Z,96128.08
2022-10-30T06:01:40.562Z,96119.41
2022-10-30T06:04:09.962Z,96116.93
2022-10-30T06:06:41.327Z,96118.08
2022-10-30T06:09:12.599Z,96117.03
2022-10-30T06:11:41.167Z,96115.46
2022-10-30T06:14:09.699Z,96118.87
2022-10-30T06:16:39.962Z,96125.65
2022-10-30T06:19:10.024Z,96127.91
2022-10-30T06:21:40.248Z,96114.02
2022-10-30T06:24:09.106Z,96115.41
2022-10-30T06:26:37.714Z,96121.16
2022-10-30T06:29:06.420Z,96120.97
2022-10-30T06:31:35.107Z,96125.34
2022-10-30T06:34:05.743Z,96125.09
2022-10-30T06:36:34.364Z,96126.12
2022-10-30T06:39:03.125Z,96129.11
2022-10-30T06:41:31.771Z,96129.48
2022-10-30T06:44:00.493Z,96127.39
2022-10-30T06:46:33.624Z,96134.09
2022-10-30T06:49:02.872Z,96128.57
2022-10-30T06:51:31.745Z,96129.23
2022-10-30T06:54:00.432Z,96141.89
2022-10-30T06:56:29.072Z,96142.98
2022-10-30T06:58:57.696Z,96139.42
2022-10-30T07:01:26.423Z,96134.13
2022-10-30T07:03:55.058Z,96132.34
2022-10-30T07:06:23.690Z,96130.66
2022-10-30T07:09:33.645Z,96140.05
2022-10-30T07:12:06.935Z,96143.39
2022-10-30T07:14:38.873Z,96141.58
2022-10-30T07:17:09.118Z,96138.69
2022-10-30T07:19:37.803Z,96131.16
2022-10-30T07:22:08.109Z,96128.82
2022-10-30T07:28:16.969Z,96126.59
2022-10-30T07:30:45.644Z,96127.86
2022-10-30T07:33:14.752Z,96117.78
2022-10-30T07:35:49.155Z,96110.95
2022-10-30T07:38:20.932Z,96118.56
2022-10-30T07:40:56.108Z,96124.73
2022-10-30T07:43:27.327Z,96124.42
2022-10-30T07:45:56.973Z,96112.92
2022-10-30T07:48:27.061Z,96117.38
2022-10-30T07:50:57.486Z,96111.48
2022-10-30T07:57:00.466Z,96103.83
2022-10-30T07:59:29.167Z,96096.51
2022-10-30T08:01:57.876Z,96097.61
2022-10-30T08:04:26.490Z,96098.39
2022-10-30T08:06:55.057Z,96100.31
2022-10-30T08:09:27.779Z,96095.16
2022-10-30T08:11:56.368Z,96080.82
2022-10-30T08:14:25.024Z,96078.94
2022-10-30T08:16:56.546Z,96077.91
2022-10-30T08:19:25.418Z,96077.98
2022-10-30T08:21:59.893Z,96071.91
2022-10-30T08:24:27.670Z,96068.87
2022-10-30T08:29:51.999Z,96066.07
2022-10-30T08:32:20.512Z,96066.69
2022-10-30T08:34:49.050Z,96074.13
2022-10-30T08:37:18.363Z,96063.22
2022-10-30T08:39:47.006Z,96063.62
2022-10-30T08:42:15.692Z,96066.58
2022-10-30T08:44:45.933Z,96070.19
2022-10-30T08:47:17.572Z,96073.11
2022-10-30T08:49:46.259Z,96068.89
2022-10-30T08:52:19.316Z,96062.80
2022-10-30T08:55:00.718Z,96069.95
2022-10-30T08:57:29.376Z,96060.95
2022-10-30T09:00:00.713Z,96062.02
2022-10-30T09:02:31.381Z,96060.67
2022-10-30T09:05:00.339Z,96058.67
2022-10-30T09:07:33.344Z,96052.98
2022-10-30T09:10:02.240Z,96050.11
2022-10-30T09:12:34.176Z,96050.48
2022-10-30T09:15:03.427Z,96041.42
2022-10-30T09:17:32.249Z,96039.03
2022-10-30T09:20:02.392Z,96039.73
2022-10-30T09:22:34.362Z,96037.78
2022-10-30T09:25:04.536Z,96031.53
2022-10-30T09:27:36.362Z,96037.36
2022-10-30T09:30:10.803Z,96035.06
2022-10-30T09:32:43.383Z,96031.03
2022-10-30T09:35:13.639Z,96035.70
2022-10-30T09:37:46.072Z,96022.81
2022-10-30T09:40:41.171Z,96023.83
2022-10-30T09:43:27.631Z,96020.05
2022-10-30T09:46:29.397Z,96011.91
2022-10-30T09:49:06.903Z,96000.63
2022-10-30T09:51:44.276Z,96004.52
2022-10-30T09:54:24.168Z,96003.00
2022-10-30T09:57:07.875Z,95994.42
2022-10-30T09:59:42.056Z,95990.40
2022-10-30T10:02:37.750Z,95988.52
2022-10-30T10:05:18.260Z,95988.52
2022-10-30T10:07:52.790Z,95983.73
2022-10-30T10:10:48.651Z,95977.75
2022-10-30T10:13:20.427Z,95973.30
2022-10-30T10:15:53.567Z,95967.30
2022-10-30T10:21:04.628Z,95951.74
2022-10-30T10:23:49.890Z,95946.70
2022-10-30T10:26:30.846Z,95934.94
2022-10-30T10:29:10.922Z,95930.11
2022-10-30T10:31:49.779Z,95932.80
2022-10-30T10:34:37.791Z,95935.40
2022-10-30T10:37:35.056Z,95921.92
2022-10-30T10:40:27.189Z,95921.66
2022-10-30T10:43:32.940Z,95914.91
2022-10-30T10:46:34.132Z,95916.98
2022-10-30T10:49:25.123Z,95916.08
2022-10-30T10:52:02.392Z,95913.91
2022-10-30T10:54:48.240Z,95908.56
2022-10-30T10:57:47.010Z,95901.75
2022-10-30T11:00:45.544Z,95898.08
2022-10-30T11:03:25.505Z,95894.56
2022-10-30T11:06:17.859Z,95890.19
2022-10-30T11:08:46.855Z,95879.77
2022-10-30T11:11:16.217Z,95878.52
2022-10-30T11:13:47.984Z,95865.73
2022-10-30T11:16:30.908Z,95864.03
2022-10-30T11:19:05.484Z,95860.30
2022-10-30T11:21:45.879Z,95863.63
2022-10-30T11:24:34.842Z,95861.83
2022-10-30T11:27:40.567Z,95854.25
2022-10-30T11:30:39.458Z,95850.57
2022-10-30T11:33:19.864Z,95847.01
2022-10-30T11:35:50.010Z,95839.50
2022-10-30T11:38:21.370Z,95831.17
2022-10-30T11:40:54.614Z,95833.29
2022-10-30T11:43:26.220Z,95828.27
2022-10-30T11:45:56.065Z,95821.91
2022-10-30T11:48:30.414Z,95824.92
2022-10-30T11:51:08.856Z,95814.52
2022-10-30T11:53:48.225Z,95812.72
2022-10-30T11:56:33.067Z,95815.95
2022-10-30T11:59:06.053Z,95812.06
2022-10-30T12:01:39.468Z,95812.99
2022-10-30T12:04:27.720Z,95801.06
2022-10-30T12:07:11.162Z,95801.91
2022-10-30T12:09:48.065Z,95802.02
2022-10-30T12:15:28.364Z,95794.84
2022-10-30T12:18:02.815Z,95797.13
2022-10-30T12:20:34.612Z,95793.04
2022-10-30T12:23:20.104Z,95785.59
2022-10-30T12:26:13.912Z,95780.98
2022-10-30T12:28:45.786Z,95780.45
2022-10-30T12:31:21.963Z,95779.99
2022-10-30T12:33:56.282Z,95772.08
2022-10-30T12:36:28.336Z,95772.71
2022-10-30T12:39:03.722Z,95766.38
2022-10-30T12:41:50.766Z,95770.03
2022-10-30T12:44:31.682Z,95767.44
2022-10-30T12:50:57.452Z,95768.75
2022-10-30T12:53:51.558Z,95767.01
2022-10-30T12:56:32.470Z,95767.41
2022-10-30T12:59:35.041Z,95769.88
2022-10-30T13:02:31.848Z,95758.90
2022-10-30T13:05:09.609Z,95757.91
2022-10-30T13:07:50.378Z,95754.27
2022-10-30T13:10:33.223Z,95753.75
2022-10-30T13:13:05.222Z,95751.91
2022-10-30T13:15:59.535Z,95748.34
2022-10-30T13:18:34.477Z,95679.83
2022-10-30T13:21:14.176Z,95739.31
2022-10-30T13:24:06.409Z,95745.39
2022-10-30T13:30:09.193Z,95744.75
2022-10-30T13:33:03.017Z,95746.63
2022-10-30T13:39:17.269Z,95739.19
2022-10-30T13:42:11.359Z,95737.19
2022-10-30T13:44:56.872Z,95733.95
2022-10-30T13:50:44.368Z,95740.22
2022-10-30T14:03:56.521Z,95746.39
2022-10-30T14:06:31.071Z,95744.00
2022-10-30T14:13:17.497Z,95736.73
2022-10-30T14:15:54.427Z,95739.08
2022-10-30T14:18:35.204Z,95732.13
2022-10-30T14:21:14.081Z,95739.84
2022-10-30T14:24:01.382Z,95738.36
2022-10-30T14:27:22.219Z,95736.47
2022-10-30T14:30:00.474Z,95738.56
2022-10-30T14:35:44.818Z,95742.11
2022-10-30T14:39:09.108Z,95741.23
2022-10-30T14:42:38.104Z,95742.25
2022-10-30T15:14:56.834Z,95750.03
2022-10-30T15:20:40.815Z,95748.03
2022-10-30T15:39:44.509Z,95756.89
2022-10-30T15:42:13.953Z,95757.81
2022-10-30T15:44:45.577Z,95752.09
2022-10-30T15:47:21.088Z,95761.02
2022-10-30T15:49:52.615Z,95757.23
2022-10-30T15:52:27.193Z,95756.56
2022-10-30T15:55:10.727Z,95759.44
2022-10-30T16:02:54.084Z,95769.17
2022-10-30T16:05:24.010Z,95764.94
2022-10-30T16:07:55.565Z,95770.45
2022-10-30T16:10:25.576Z,95715.95
2022-10-30T16:12:56.547Z,95773.68
2022-10-30T16:15:34.502Z,95782.97
2022-10-30T16:18:25.717Z,95789.64
2022-10-30T16:20:57.375Z,95789.88
2022-10-30T16:23:26.056Z,95785.91
2022-10-30T16:25:59.378Z,95792.58
2022-10-30T16:28:36.291Z,95800.22
2022-10-30T16:31:11.766Z,95799.87
2022-10-30T16:33:42.831Z,95795.66
2022-10-30T16:36:18.121Z,95800.73
2022-10-30T16:38:50.047Z,95799.91
2022-10-30T16:41:26.718Z,95796.63
2022-10-30T16:44:12.092Z,95804.07
2022-10-30T16:46:50.681Z,95811.22
2022-10-30T16:49:28.268Z,95807.53
2022-10-30T16:52:03.176Z,95811.59
2022-10-30T16:54:37.572Z,95815.13
2022-10-30T16:57:28.404Z,95807.27
2022-10-30T16:59:58.634Z,95810.55
2022-10-30T17:02:39.221Z,95821.78
2022-10-30T17:05:15.465Z,95817.63
2022-10-30T17:07:58.823Z,95811.88
2022-10-30T17:10:42.315Z,95813.05
2022-10-30T17:13:41.115Z,95819.38
2022-10-30T17:16:34.086Z,95806.09
2022-10-30T17:19:22.201Z,95802.09
2022-10-30T17:21:56.784Z,95815.95
2022-10-30T17:24:28.630Z,95810.23
2022-10-30T17:27:03.089Z,95813.11
2022-10-30T17:29:40.437Z,95813.72
2022-10-30T17:32:20.646Z,95813.30
2022-10-30T17:35:00.869Z,95820.18
2022-10-30T17:37:30.154Z,95812.31
2022-10-30T17:40:01.508Z,95810.05
2022-10-30T17:42:30.200Z,95807.78
2022-10-30T17:44:59.352Z,95807.75
2022-10-30T17:47:29.963Z,95804.64
2022-10-30T17:52:55.598Z,95809.25
2022-10-30T17:55:35.366Z,95809.52
2022-10-30T17:58:05.806Z,95814.33
2022-10-30T18:00:36.021Z,95814.16
2022-10-30T18:03:04.690Z,95807.44
2022-10-30T18:05:36.032Z,95802.28
2022-10-30T18:08:04.717Z,95800.17
2022-10-30T18:10:33.319Z,95802.68
2022-10-30T18:13:02.679Z,95797.53
2022-10-30T18:15:39.097Z,95800.58
2022-10-30T18:18:09.426Z,95800.80
2022-10-30T18:20:38.860Z,95807.13
2022-10-30T18:25:56.630Z,95809.82
2022-10-30T18:28:44.583Z,95785.63
2022-10-30T18:31:22.711Z,95810.20
2022-10-30T18:33:51.445Z,95817.89
2022-10-30T18:36:30.723Z,95811.91
2022-10-30T18:38:59.497Z,95816.34
2022-10-30T18:41:53.992Z,95819.98
2022-10-30T18:44:22.656Z,95818.63
2022-10-30T18:46:51.362Z,95813.84
2022-10-30T18:49:21.693Z,95817.88
2022-10-30T18:51:51.070Z,95814.41
2022-10-30T18:54:21.088Z,95811.74
2022-10-30T18:56:51.143Z,95813.65
2022-10-30T18:59:19.696Z,95818.84
2022-10-30T19:01:48.545Z,95820.56
2022-10-30T19:04:22.197Z,95823.27
2022-10-30T19:06:49.818Z,95815.19
2022-10-30T19:09:21.510Z,95822.11
2022-10-30T19:12:04.263Z,95823.64
2022-10-30T19:14:36.151Z,95822.09
2022-10-30T19:17:11.154Z,95827.67
2022-10-30T19:19:39.849Z,95829.97
2022-10-30T19:22:10.356Z,95828.64
2022-10-30T19:24:38.947Z,95828.45
2022-10-30T19:27:07.540Z,95835.36
2022-10-30T19:29:36.202Z,95835.16
2022-10-30T19:32:04.797Z,95830.16
2022-10-30T19:34:35.042Z,95824.79
2022-10-30T19:37:06.664Z,95819.03
2022-10-30T19:39:35.376Z,95819.78
2022-10-30T19:42:06.192Z,95819.61
2022-10-30T19:44:34.777Z,95825.17
2022-10-30T19:47:04.977Z,95830.75
2022-10-30T19:49:33.608Z,95824.42
2022-10-30T19:52:02.262Z,95828.05
2022-10-30T19:54:32.137Z,95834.58
2022-10-30T19:57:00.717Z,95829.39
2022-10-30T19:59:29.411Z,95832.86
2022-10-30T20:01:58.232Z,95835.73
2022-10-30T20:04:32.968Z,95837.07
2022-10-30T20:07:07.555Z,95845.52
2022-10-30T20:09:36.430Z,95852.81
2022-10-30T20:12:06.902Z,95856.45
2022-10-30T20:14:39.917Z,95858.77
2022-10-30T20:17:10.387Z,95857.41
2022-10-30T20:19:39.200Z,95853.96
2022-10-30T20:22:07.993Z,95862.41
2022-10-30T20:24:36.680Z,95870.01
2022-10-30T20:27:05.552Z,95873.45
2022-10-30T20:29:38.962Z,95870.78
2022-10-30T20:32:09.065Z,95867.11
2022-10-30T20:34:37.655Z,95865.36
2022-10-30T20:37:09.074Z,95861.91
2022-10-30T20:39:37.785Z,95864.73
2022-10-30T20:42:16.794Z,95860.91
2022-10-30T20:44:48.446Z,95856.25
2022-10-30T20:47:18.999Z,95856.28
2022-10-30T20:49:49.283Z,95807.19
2022-10-30T20:52:22.387Z,95783.06
2022-10-30T20:58:15.461Z,95856.51
2022-10-30T21:00:44.462Z,95851.48
2022-10-30T21:03:15.810Z,95853.48
2022-10-30T21:05:48.781Z,95850.80
2022-10-30T21:08:19.031Z,95847.39
2022-10-30T21:10:49.921Z,95849.00
2022-10-30T21:13:24.470Z,95848.07
2022-10-30T21:15:53.488Z,95842.55
2022-10-30T21:18:24.041Z,95842.20
2022-10-30T21:20:54.711Z,95843.44
2022-10-30T21:23:26.194Z,95841.30
2022-10-30T21:26:07.307Z,95844.75
2022-10-30T21:28:37.639Z,95843.98
2022-10-30T21:31:09.043Z,95845.09
2022-10-30T21:33:49.405Z,95845.47
2022-10-30T21:36:21.031Z,95844.71
2022-10-30T21:38:58.861Z,95841.91
2022-10-30T21:41:39.091Z,95834.84
2022-10-30T21:44:15.473Z,95774.47
2022-10-30T21:46:44.546Z,95839.34
2022-10-30T21:49:16.642Z,95846.37
2022-10-30T21:51:49.393Z,95852.41
2022-10-30T21:54:19.861Z,95857.12
2022-10-30T21:56:50.397Z,95853.63
2022-10-30T21:59:19.401Z,95856.31
2022-10-30T22:01:48.397Z,95854.97
2022-10-30T22:04:20.253Z,95861.06
2022-10-30T22:06:51.970Z,95862.60
2022-10-30T22:09:20.645Z,95859.88
2022-10-30T22:11:52.326Z,95863.75
2022-10-30T22:14:22.043Z,95867.02
2022-10-30T22:16:52.192Z,95870.77
2022-10-30T22:19:21.304Z,95875.60
2022-10-30T22:21:50.317Z,95869.73
2022-10-30T22:24:19.179Z,95878.13
2022-10-30T22:26:47.930Z,95870.05
2022-10-30T22:29:16.645Z,95873.41
2022-10-30T22:31:53.168Z,95871.82
2022-10-30T22:34:21.666Z,95865.07
2022-10-30T22:36:51.865Z,95861.09
2022-10-30T22:39:20.449Z,95858.95
2022-10-30T22:41:50.578Z,95858.70
2022-10-30T22:44:20.795Z,95850.32
2022-10-30T22:46:50.929Z,95848.14
2022-10-30T22:49:23.021Z,95853.97
2022-10-30T22:51:51.611Z,95842.33
2022-10-30T22:54:21.913Z,95838.17
2022-10-30T22:56:50.682Z,95837.63
2022-10-30T22:59:19.410Z,95837.88
2022-10-30T23:01:47.984Z,95840.98
2022-10-30T23:04:18.459Z,95841.13
2022-10-30T23:06:49.808Z,95837.63
2022-10-30T23:09:22.431Z,95838.06
2022-10-30T23:12:01.863Z,95837.34
2022-10-30T23:14:36.133Z,95830.64
2022-10-30T23:17:04.943Z,95826.19
2022-10-30T23:19:35.526Z,95835.00
2022-10-30T23:22:04.233Z,95829.80
2022-10-30T23:24:34.121Z,95841.23
2022-10-30T23:27:04.493Z,95850.66
2022-10-30T23:29:33.356Z,95855.81
2022-10-30T23:32:08.782Z,95855.66
2022-10-30T23:34:40.664Z,95855.59
2022-10-30T23:37:09.612Z,95853.78
2022-10-30T23:39:38.602Z,95858.44
2022-10-30T23:42:07.535Z,95853.56
2022-10-30T23:44:37.517Z,95858.27
2022-10-30T23:47:06.510Z,95854.61
2022-10-30T23:49:41.159Z,95856.75
2022-10-30T23:52:11.710Z,95851.90
2022-10-30T23:54:42.220Z,95852.44
2022-10-30T23:57:14.201Z,95853.14
2022-10-30T23:59:43.458Z,95852.22
